sensor_id;sensor_type;location;lat;lon;timestamp;temperature;humidity
66343;DHT22;53144;51.524;5.080;2022-08-30T00:00:41;16.87;85.44
66343;DHT22;53144;51.524;5.080;2022-08-30T00:03:25;16.90;85.43
66343;DHT22;53144;51.524;5.080;2022-08-30T00:05:52;16.81;85.71
66343;DHT22;53144;51.524;5.080;2022-08-30T00:08:17;16.77;85.73
66343;DHT22;53144;51.524;5.080;2022-08-30T00:10:43;16.76;85.77
66343;DHT22;53144;51.524;5.080;2022-08-30T00:13:09;16.83;85.65
66343;DHT22;53144;51.524;5.080;2022-08-30T00:15:37;16.85;85.20
66343;DHT22;53144;51.524;5.080;2022-08-30T00:18:03;16.83;85.50
66343;DHT22;53144;51.524;5.080;2022-08-30T00:20:31;16.77;85.40
66343;DHT22;53144;51.524;5.080;2022-08-30T00:22:56;16.83;85.23
66343;DHT22;53144;51.524;5.080;2022-08-30T00:25:22;16.77;85.50
66343;DHT22;53144;51.524;5.080;2022-08-30T00:27:47;16.79;85.35
66343;DHT22;53144;51.524;5.080;2022-08-30T00:30:14;16.74;85.60
66343;DHT22;53144;51.524;5.080;2022-08-30T00:32:39;16.73;85.72
66343;DHT22;53144;51.524;5.080;2022-08-30T00:35:07;16.70;85.89
66343;DHT22;53144;51.524;5.080;2022-08-30T00:37:32;16.72;85.85
66343;DHT22;53144;51.524;5.080;2022-08-30T00:39:58;16.77;85.52
66343;DHT22;53144;51.524;5.080;2022-08-30T00:42:23;16.67;85.96
66343;DHT22;53144;51.524;5.080;2022-08-30T00:44:50;16.64;86.29
66343;DHT22;53144;51.524;5.080;2022-08-30T00:47:16;16.64;86.16
66343;DHT22;53144;51.524;5.080;2022-08-30T00:49:44;16.70;85.79
66343;DHT22;53144;51.524;5.080;2022-08-30T00:52:10;16.80;85.71
66343;DHT22;53144;51.524;5.080;2022-08-30T00:54:38;16.66;86.18
66343;DHT22;53144;51.524;5.080;2022-08-30T00:57:05;16.79;85.56
66343;DHT22;53144;51.524;5.080;2022-08-30T00:59:30;16.77;85.96
66343;DHT22;53144;51.524;5.080;2022-08-30T01:01:56;16.79;85.85
66343;DHT22;53144;51.524;5.080;2022-08-30T01:04:23;16.85;85.53
66343;DHT22;53144;51.524;5.080;2022-08-30T01:06:49;16.81;85.69
66343;DHT22;53144;51.524;5.080;2022-08-30T01:09:15;16.85;85.33
66343;DHT22;53144;51.524;5.080;2022-08-30T01:11:42;16.85;85.13
66343;DHT22;53144;51.524;5.080;2022-08-30T01:14:09;16.76;85.60
66343;DHT22;53144;51.524;5.080;2022-08-30T01:16:41;16.79;85.63
66343;DHT22;53144;51.524;5.080;2022-08-30T01:19:28;16.79;85.52
66343;DHT22;53144;51.524;5.080;2022-08-30T01:22:19;16.72;85.73
66343;DHT22;53144;51.524;5.080;2022-08-30T01:24:48;16.63;86.07
66343;DHT22;53144;51.524;5.080;2022-08-30T01:27:15;16.51;86.75
66343;DHT22;53144;51.524;5.080;2022-08-30T01:29:47;16.41;86.84
66343;DHT22;53144;51.524;5.080;2022-08-30T01:32:24;16.39;86.86
66343;DHT22;53144;51.524;5.080;2022-08-30T01:34:50;16.41;86.81
66343;DHT22;53144;51.524;5.080;2022-08-30T01:37:23;16.45;86.54
66343;DHT22;53144;51.524;5.080;2022-08-30T01:39:50;16.33;87.27
66343;DHT22;53144;51.524;5.080;2022-08-30T01:42:16;16.30;87.08
66343;DHT22;53144;51.524;5.080;2022-08-30T01:44:44;16.29;87.30
66343;DHT22;53144;51.524;5.080;2022-08-30T01:47:11;16.28;87.25
66343;DHT22;53144;51.524;5.080;2022-08-30T01:49:37;16.28;87.35
66343;DHT22;53144;51.524;5.080;2022-08-30T01:52:04;16.29;87.25
66343;DHT22;53144;51.524;5.080;2022-08-30T01:54:31;16.42;87.10
66343;DHT22;53144;51.524;5.080;2022-08-30T01:56:57;16.46;86.81
66343;DHT22;53144;51.524;5.080;2022-08-30T01:59:22;16.42;86.93
66343;DHT22;53144;51.524;5.080;2022-08-30T02:01:48;16.52;86.66
66343;DHT22;53144;51.524;5.080;2022-08-30T02:04:13;16.46;86.93
66343;DHT22;53144;51.524;5.080;2022-08-30T02:06:39;16.42;86.96
66343;DHT22;53144;51.524;5.080;2022-08-30T02:09:05;16.49;86.43
66343;DHT22;53144;51.524;5.080;2022-08-30T02:11:31;16.51;86.47
66343;DHT22;53144;51.524;5.080;2022-08-30T02:13:56;16.39;86.92
66343;DHT22;53144;51.524;5.080;2022-08-30T02:16:23;16.41;86.86
66343;DHT22;53144;51.524;5.080;2022-08-30T02:18:50;16.39;86.85
66343;DHT22;53144;51.524;5.080;2022-08-30T02:21:16;16.42;86.61
66343;DHT22;53144;51.524;5.080;2022-08-30T02:23:41;16.38;86.68
66343;DHT22;53144;51.524;5.080;2022-08-30T02:26:07;16.24;87.40
66343;DHT22;53144;51.524;5.080;2022-08-30T02:28:33;16.32;87.03
66343;DHT22;53144;51.524;5.080;2022-08-30T02:30:59;16.28;87.20
66343;DHT22;53144;51.524;5.080;2022-08-30T02:33:24;16.24;87.42
66343;DHT22;53144;51.524;5.080;2022-08-30T02:35:50;16.06;87.99
66343;DHT22;53144;51.524;5.080;2022-08-30T02:38:15;16.01;88.20
66343;DHT22;53144;51.524;5.080;2022-08-30T02:40:41;16.06;88.07
66343;DHT22;53144;51.524;5.080;2022-08-30T02:43:08;16.02;87.93
66343;DHT22;53144;51.524;5.080;2022-08-30T02:45:33;16.00;88.32
66343;DHT22;53144;51.524;5.080;2022-08-30T02:47:59;16.01;88.16
66343;DHT22;53144;51.524;5.080;2022-08-30T02:50:25;16.06;87.97
66343;DHT22;53144;51.524;5.080;2022-08-30T02:52:50;16.11;87.85
66343;DHT22;53144;51.524;5.080;2022-08-30T02:55:16;16.08;88.09
66343;DHT22;53144;51.524;5.080;2022-08-30T02:57:42;16.09;87.95
66343;DHT22;53144;51.524;5.080;2022-08-30T03:00:10;16.09;88.09
66343;DHT22;53144;51.524;5.080;2022-08-30T03:02:37;16.02;88.35
66343;DHT22;53144;51.524;5.080;2022-08-30T03:05:03;16.04;88.22
66343;DHT22;53144;51.524;5.080;2022-08-30T03:07:29;16.05;88.24
66343;DHT22;53144;51.524;5.080;2022-08-30T03:09:55;16.04;88.41
66343;DHT22;53144;51.524;5.080;2022-08-30T03:12:21;15.95;88.65
66343;DHT22;53144;51.524;5.080;2022-08-30T03:14:47;16.01;88.30
66343;DHT22;53144;51.524;5.080;2022-08-30T03:17:12;16.00;88.44
66343;DHT22;53144;51.524;5.080;2022-08-30T03:19:38;16.00;88.40
66343;DHT22;53144;51.524;5.080;2022-08-30T03:22:04;16.05;88.24
66343;DHT22;53144;51.524;5.080;2022-08-30T03:24:31;15.98;88.22
66343;DHT22;53144;51.524;5.080;2022-08-30T03:26:56;15.97;88.30
66343;DHT22;53144;51.524;5.080;2022-08-30T03:29:22;16.04;88.24
66343;DHT22;53144;51.524;5.080;2022-08-30T03:31:47;15.98;88.34
66343;DHT22;53144;51.524;5.080;2022-08-30T03:34:13;15.91;88.58
66343;DHT22;53144;51.524;5.080;2022-08-30T03:36:39;15.87;88.63
66343;DHT22;53144;51.524;5.080;2022-08-30T03:39:06;15.90;88.71
66343;DHT22;53144;51.524;5.080;2022-08-30T03:41:32;15.88;88.57
66343;DHT22;53144;51.524;5.080;2022-08-30T03:43:58;15.90;88.53
66343;DHT22;53144;51.524;5.080;2022-08-30T03:46:24;15.90;88.52
66343;DHT22;53144;51.524;5.080;2022-08-30T03:48:49;15.88;88.63
66343;DHT22;53144;51.524;5.080;2022-08-30T03:51:16;15.88;88.84
66343;DHT22;53144;51.524;5.080;2022-08-30T03:53:42;15.85;88.85
66343;DHT22;53144;51.524;5.080;2022-08-30T03:56:07;15.91;88.65
66343;DHT22;53144;51.524;5.080;2022-08-30T03:58:33;15.90;88.70
66343;DHT22;53144;51.524;5.080;2022-08-30T04:00:59;15.78;88.97
66343;DHT22;53144;51.524;5.080;2022-08-30T04:03:24;15.91;88.50
66343;DHT22;53144;51.524;5.080;2022-08-30T04:05:54;15.91;88.54
66343;DHT22;53144;51.524;5.080;2022-08-30T04:08:20;15.84;88.66
66343;DHT22;53144;51.524;5.080;2022-08-30T04:10:46;15.90;88.41
66343;DHT22;53144;51.524;5.080;2022-08-30T04:13:13;15.94;88.42
66343;DHT22;53144;51.524;5.080;2022-08-30T04:15:39;15.87;88.54
66343;DHT22;53144;51.524;5.080;2022-08-30T04:18:04;15.77;88.91
66343;DHT22;53144;51.524;5.080;2022-08-30T04:20:30;15.73;89.17
66343;DHT22;53144;51.524;5.080;2022-08-30T04:22:55;15.78;88.86
66343;DHT22;53144;51.524;5.080;2022-08-30T04:25:21;15.73;89.29
66343;DHT22;53144;51.524;5.080;2022-08-30T04:27:47;15.67;89.37
66343;DHT22;53144;51.524;5.080;2022-08-30T04:30:15;15.67;89.40
66343;DHT22;53144;51.524;5.080;2022-08-30T04:32:41;15.78;89.17
66343;DHT22;53144;51.524;5.080;2022-08-30T04:35:08;15.81;88.86
66343;DHT22;53144;51.524;5.080;2022-08-30T04:37:34;15.87;88.88
66343;DHT22;53144;51.524;5.080;2022-08-30T04:39:59;15.88;88.90
66343;DHT22;53144;51.524;5.080;2022-08-30T04:42:26;15.77;89.05
66343;DHT22;53144;51.524;5.080;2022-08-30T04:44:56;15.81;89.03
66343;DHT22;53144;51.524;5.080;2022-08-30T04:47:21;15.78;89.15
66343;DHT22;53144;51.524;5.080;2022-08-30T04:49:47;15.84;88.84
66343;DHT22;53144;51.524;5.080;2022-08-30T04:52:12;15.71;89.14
66343;DHT22;53144;51.524;5.080;2022-08-30T04:54:38;15.75;89.05
66343;DHT22;53144;51.524;5.080;2022-08-30T04:57:05;15.80;89.00
66343;DHT22;53144;51.524;5.080;2022-08-30T04:59:30;15.83;88.86
66343;DHT22;53144;51.524;5.080;2022-08-30T05:01:58;15.77;88.94
66343;DHT22;53144;51.524;5.080;2022-08-30T05:04:24;15.74;89.18
66343;DHT22;53144;51.524;5.080;2022-08-30T05:06:50;15.73;89.00
66343;DHT22;53144;51.524;5.080;2022-08-30T05:09:15;15.75;89.02
66343;DHT22;53144;51.524;5.080;2022-08-30T05:11:41;15.80;88.81
66343;DHT22;53144;51.524;5.080;2022-08-30T05:14:08;15.74;89.06
66343;DHT22;53144;51.524;5.080;2022-08-30T05:16:34;15.74;88.98
66343;DHT22;53144;51.524;5.080;2022-08-30T05:18:59;15.63;89.33
66343;DHT22;53144;51.524;5.080;2022-08-30T05:21:26;15.57;89.68
66343;DHT22;53144;51.524;5.080;2022-08-30T05:23:56;15.58;89.72
66343;DHT22;53144;51.524;5.080;2022-08-30T05:26:27;15.60;89.70
66343;DHT22;53144;51.524;5.080;2022-08-30T05:28:53;15.73;89.34
66343;DHT22;53144;51.524;5.080;2022-08-30T05:31:30;15.84;88.86
66343;DHT22;53144;51.524;5.080;2022-08-30T05:33:58;15.83;89.17
66343;DHT22;53144;51.524;5.080;2022-08-30T05:36:27;15.88;88.75
66343;DHT22;53144;51.524;5.080;2022-08-30T05:38:53;15.97;88.41
66343;DHT22;53144;51.524;5.080;2022-08-30T05:41:21;16.02;87.94
66343;DHT22;53144;51.524;5.080;2022-08-30T05:43:47;15.98;88.27
66343;DHT22;53144;51.524;5.080;2022-08-30T05:46:13;16.06;88.26
66343;DHT22;53144;51.524;5.080;2022-08-30T05:48:44;16.04;88.12
66343;DHT22;53144;51.524;5.080;2022-08-30T05:51:15;16.04;88.10
66343;DHT22;53144;51.524;5.080;2022-08-30T05:53:42;16.01;88.07
66343;DHT22;53144;51.524;5.080;2022-08-30T05:56:10;16.06;87.98
66343;DHT22;53144;51.524;5.080;2022-08-30T05:58:36;16.02;88.00
66343;DHT22;53144;51.524;5.080;2022-08-30T06:01:02;15.98;88.43
66343;DHT22;53144;51.524;5.080;2022-08-30T06:03:28;15.97;88.53
66343;DHT22;53144;51.524;5.080;2022-08-30T06:05:54;15.91;88.17
66343;DHT22;53144;51.524;5.080;2022-08-30T06:08:20;15.97;88.36
66343;DHT22;53144;51.524;5.080;2022-08-30T06:10:46;16.04;87.98
66343;DHT22;53144;51.524;5.080;2022-08-30T06:13:12;16.05;88.22
66343;DHT22;53144;51.524;5.080;2022-08-30T06:15:38;16.02;88.07
66343;DHT22;53144;51.524;5.080;2022-08-30T06:18:07;16.06;87.97
66343;DHT22;53144;51.524;5.080;2022-08-30T06:20:32;16.04;88.12
66343;DHT22;53144;51.524;5.080;2022-08-30T06:22:59;16.08;88.07
66343;DHT22;53144;51.524;5.080;2022-08-30T06:25:24;16.21;87.68
66343;DHT22;53144;51.524;5.080;2022-08-30T06:27:49;16.18;87.71
66343;DHT22;53144;51.524;5.080;2022-08-30T06:30:16;16.24;87.80
66343;DHT22;53144;51.524;5.080;2022-08-30T06:32:41;16.38;87.17
66343;DHT22;53144;51.524;5.080;2022-08-30T06:35:10;16.39;87.33
66343;DHT22;53144;51.524;5.080;2022-08-30T06:37:35;16.32;87.05
66343;DHT22;53144;51.524;5.080;2022-08-30T06:40:03;16.49;86.98
66343;DHT22;53144;51.524;5.080;2022-08-30T06:42:30;16.48;86.23
66343;DHT22;53144;51.524;5.080;2022-08-30T06:44:58;16.46;86.67
66343;DHT22;53144;51.524;5.080;2022-08-30T06:47:28;16.60;86.53
66343;DHT22;53144;51.524;5.080;2022-08-30T06:49:54;16.63;85.80
66343;DHT22;53144;51.524;5.080;2022-08-30T06:52:26;16.74;85.84
66343;DHT22;53144;51.524;5.080;2022-08-30T06:54:53;16.70;85.74
66343;DHT22;53144;51.524;5.080;2022-08-30T06:57:19;16.77;86.28
66343;DHT22;53144;51.524;5.080;2022-08-30T06:59:47;16.83;85.29
66343;DHT22;53144;51.524;5.080;2022-08-30T07:02:20;16.93;84.91
66343;DHT22;53144;51.524;5.080;2022-08-30T07:04:45;17.03;85.24
66343;DHT22;53144;51.524;5.080;2022-08-30T07:07:11;17.13;84.96
66343;DHT22;53144;51.524;5.080;2022-08-30T07:09:36;17.22;83.82
66343;DHT22;53144;51.524;5.080;2022-08-30T07:12:10;17.36;83.11
66343;DHT22;53144;51.524;5.080;2022-08-30T07:14:37;17.36;83.45
66343;DHT22;53144;51.524;5.080;2022-08-30T07:17:03;17.48;83.11
66343;DHT22;53144;51.524;5.080;2022-08-30T07:19:49;17.63;82.43
66343;DHT22;53144;51.524;5.080;2022-08-30T07:22:14;17.69;82.47
66343;DHT22;53144;51.524;5.080;2022-08-30T07:24:43;17.89;82.70
66343;DHT22;53144;51.524;5.080;2022-08-30T07:27:08;17.97;82.32
66343;DHT22;53144;51.524;5.080;2022-08-30T07:29:39;18.06;81.05
66343;DHT22;53144;51.524;5.080;2022-08-30T07:32:08;18.13;80.85
66343;DHT22;53144;51.524;5.080;2022-08-30T07:34:35;18.27;80.02
66343;DHT22;53144;51.524;5.080;2022-08-30T07:37:01;18.23;80.54
66343;DHT22;53144;51.524;5.080;2022-08-30T07:39:26;18.36;80.09
66343;DHT22;53144;51.524;5.080;2022-08-30T07:41:51;18.31;79.29
66343;DHT22;53144;51.524;5.080;2022-08-30T07:44:41;18.34;80.07
66343;DHT22;53144;51.524;5.080;2022-08-30T07:47:06;18.37;80.29
66343;DHT22;53144;51.524;5.080;2022-08-30T07:49:41;18.48;79.30
66343;DHT22;53144;51.524;5.080;2022-08-30T07:52:06;18.55;79.00
66343;DHT22;53144;51.524;5.080;2022-08-30T07:54:33;18.47;78.52
66343;DHT22;53144;51.524;5.080;2022-08-30T07:56:58;18.52;79.07
66343;DHT22;53144;51.524;5.080;2022-08-30T07:59:23;18.67;78.07
66343;DHT22;53144;51.524;5.080;2022-08-30T08:01:49;18.65;78.93
66343;DHT22;53144;51.524;5.080;2022-08-30T08:04:14;18.75;79.17
66343;DHT22;53144;51.524;5.080;2022-08-30T08:06:40;18.82;78.55
66343;DHT22;53144;51.524;5.080;2022-08-30T08:09:07;19.06;78.89
66343;DHT22;53144;51.524;5.080;2022-08-30T08:11:34;19.22;77.91
66343;DHT22;53144;51.524;5.080;2022-08-30T08:14:00;19.27;76.92
66343;DHT22;53144;51.524;5.080;2022-08-30T08:16:29;19.37;75.92
66343;DHT22;53144;51.524;5.080;2022-08-30T08:18:55;19.20;76.15
66343;DHT22;53144;51.524;5.080;2022-08-30T08:21:21;19.33;76.67
66343;DHT22;53144;51.524;5.080;2022-08-30T08:23:47;19.46;75.59
66343;DHT22;53144;51.524;5.080;2022-08-30T08:26:13;19.51;76.08
66343;DHT22;53144;51.524;5.080;2022-08-30T08:28:38;19.57;76.08
66343;DHT22;53144;51.524;5.080;2022-08-30T08:31:14;19.67;75.56
66343;DHT22;53144;51.524;5.080;2022-08-30T08:34:05;19.77;75.71
66343;DHT22;53144;51.524;5.080;2022-08-30T08:36:32;19.78;74.69
66343;DHT22;53144;51.524;5.080;2022-08-30T08:38:58;19.70;75.51
66343;DHT22;53144;51.524;5.080;2022-08-30T08:44:58;19.97;74.76
66343;DHT22;53144;51.524;5.080;2022-08-30T08:49:52;20.39;71.70
66343;DHT22;53144;51.524;5.080;2022-08-30T08:52:51;20.19;73.31
66343;DHT22;53144;51.524;5.080;2022-08-30T08:55:40;20.33;72.20
66343;DHT22;53144;51.524;5.080;2022-08-30T08:58:21;20.42;72.64
66343;DHT22;53144;51.524;5.080;2022-08-30T09:00:47;20.57;71.76
66343;DHT22;53144;51.524;5.080;2022-08-30T09:03:13;20.73;71.50
66343;DHT22;53144;51.524;5.080;2022-08-30T09:05:42;20.49;70.75
66343;DHT22;53144;51.524;5.080;2022-08-30T09:08:13;20.66;70.37
66343;DHT22;53144;51.524;5.080;2022-08-30T09:11:05;20.69;70.49
66343;DHT22;53144;51.524;5.080;2022-08-30T09:13:31;20.76;70.48
66343;DHT22;53144;51.524;5.080;2022-08-30T09:15:57;20.77;70.12
66343;DHT22;53144;51.524;5.080;2022-08-30T09:18:46;20.86;70.48
66343;DHT22;53144;51.524;5.080;2022-08-30T09:21:13;20.97;68.85
66343;DHT22;53144;51.524;5.080;2022-08-30T09:23:55;21.00;68.81
66343;DHT22;53144;51.524;5.080;2022-08-30T09:26:31;21.17;68.62
66343;DHT22;53144;51.524;5.080;2022-08-30T09:28:57;21.23;67.77
66343;DHT22;53144;51.524;5.080;2022-08-30T09:31:33;21.37;67.45
66343;DHT22;53144;51.524;5.080;2022-08-30T09:34:17;21.49;68.96
66343;DHT22;53144;51.524;5.080;2022-08-30T09:36:50;21.61;65.98
66343;DHT22;53144;51.524;5.080;2022-08-30T09:39:26;21.66;65.81
66343;DHT22;53144;51.524;5.080;2022-08-30T09:41:53;21.55;66.16
66343;DHT22;53144;51.524;5.080;2022-08-30T09:44:26;21.62;65.71
66343;DHT22;53144;51.524;5.080;2022-08-30T09:46:53;21.76;67.53
66343;DHT22;53144;51.524;5.080;2022-08-30T09:49:39;21.66;66.88
66343;DHT22;53144;51.524;5.080;2022-08-30T09:57:47;21.62;65.81
66343;DHT22;53144;51.524;5.080;2022-08-30T10:00:22;21.81;66.52
66343;DHT22;53144;51.524;5.080;2022-08-30T10:22:15;23.87;59.28
66343;DHT22;53144;51.524;5.080;2022-08-30T10:24:53;24.35;58.44
66343;DHT22;53144;51.524;5.080;2022-08-30T10:27:39;24.57;57.13
66343;DHT22;53144;51.524;5.080;2022-08-30T10:30:09;24.76;56.12
66343;DHT22;53144;51.524;5.080;2022-08-30T10:32:47;25.23;55.71
66343;DHT22;53144;51.524;5.080;2022-08-30T10:35:19;26.02;53.79
66343;DHT22;53144;51.524;5.080;2022-08-30T10:37:57;25.69;53.89
66343;DHT22;53144;51.524;5.080;2022-08-30T10:40:35;25.92;53.55
66343;DHT22;53144;51.524;5.080;2022-08-30T10:43:39;26.06;50.84
66343;DHT22;53144;51.524;5.080;2022-08-30T10:46:10;25.94;53.25
66343;DHT22;53144;51.524;5.080;2022-08-30T10:48:42;27.09;49.09
66343;DHT22;53144;51.524;5.080;2022-08-30T10:51:13;27.29;48.26
66343;DHT22;53144;51.524;5.080;2022-08-30T10:53:47;26.19;51.44
66343;DHT22;53144;51.524;5.080;2022-08-30T10:56:22;26.51;49.83
66343;DHT22;53144;51.524;5.080;2022-08-30T10:59:41;25.69;52.16
66343;DHT22;53144;51.524;5.080;2022-08-30T11:05:06;25.76;53.21
66343;DHT22;53144;51.524;5.080;2022-08-30T11:15:19;26.07;51.73
66343;DHT22;53144;51.524;5.080;2022-08-30T11:17:59;26.24;52.95
66343;DHT22;53144;51.524;5.080;2022-08-30T11:20:37;26.19;50.95
66343;DHT22;53144;51.524;5.080;2022-08-30T11:23:41;25.48;52.83
66343;DHT22;53144;51.524;5.080;2022-08-30T11:26:11;25.65;52.94
66343;DHT22;53144;51.524;5.080;2022-08-30T11:31:10;25.33;52.98
66343;DHT22;53144;51.524;5.080;2022-08-30T11:34:01;26.43;50.93
66343;DHT22;53144;51.524;5.080;2022-08-30T11:39:09;25.79;51.11
66343;DHT22;53144;51.524;5.080;2022-08-30T11:41:46;24.82;53.07
66343;DHT22;53144;51.524;5.080;2022-08-30T11:46:49;25.83;52.91
66343;DHT22;53144;51.524;5.080;2022-08-30T11:49:39;26.21;51.18
66343;DHT22;53144;51.524;5.080;2022-08-30T11:55:37;26.74;49.49
66343;DHT22;53144;51.524;5.080;2022-08-30T11:58:13;27.51;47.19
66343;DHT22;53144;51.524;5.080;2022-08-30T12:00:44;27.43;49.04
66343;DHT22;53144;51.524;5.080;2022-08-30T12:16:06;27.38;47.72
66343;DHT22;53144;51.524;5.080;2022-08-30T12:18:52;27.45;47.49
66343;DHT22;53144;51.524;5.080;2022-08-30T12:24:03;27.09;46.25
66343;DHT22;53144;51.524;5.080;2022-08-30T12:26:35;27.19;46.69
66343;DHT22;53144;51.524;5.080;2022-08-30T12:31:54;27.59;45.37
66343;DHT22;53144;51.524;5.080;2022-08-30T12:40:15;26.17;49.42
66343;DHT22;53144;51.524;5.080;2022-08-30T12:42:58;26.47;49.46
66343;DHT22;53144;51.524;5.080;2022-08-30T12:45:42;26.95;48.41
66343;DHT22;53144;51.524;5.080;2022-08-30T12:48:14;27.15;47.63
66343;DHT22;53144;51.524;5.080;2022-08-30T12:53:34;28.07;44.20
66343;DHT22;53144;51.524;5.080;2022-08-30T12:56:16;29.15;40.88
66343;DHT22;53144;51.524;5.080;2022-08-30T12:58:51;28.96;40.54
66343;DHT22;53144;51.524;5.080;2022-08-30T13:03:54;27.91;42.79
66343;DHT22;53144;51.524;5.080;2022-08-30T13:06:41;28.31;41.93
66343;DHT22;53144;51.524;5.080;2022-08-30T13:09:41;27.87;42.49
66343;DHT22;53144;51.524;5.080;2022-08-30T13:12:20;27.98;45.84
66343;DHT22;53144;51.524;5.080;2022-08-30T13:14:46;28.36;42.71
66343;DHT22;53144;51.524;5.080;2022-08-30T13:19:44;27.74;43.13
66343;DHT22;53144;51.524;5.080;2022-08-30T13:24:59;28.19;41.54
66343;DHT22;53144;51.524;5.080;2022-08-30T13:27:26;27.78;44.02
66343;DHT22;53144;51.524;5.080;2022-08-30T13:29:56;27.51;43.55
66343;DHT22;53144;51.524;5.080;2022-08-30T13:32:22;27.70;42.58
66343;DHT22;53144;51.524;5.080;2022-08-30T13:34:48;28.22;44.78
66343;DHT22;53144;51.524;5.080;2022-08-30T13:37:20;28.63;41.38
66343;DHT22;53144;51.524;5.080;2022-08-30T13:39:55;27.68;43.80
66343;DHT22;53144;51.524;5.080;2022-08-30T13:42:23;27.96;42.10
66343;DHT22;53144;51.524;5.080;2022-08-30T13:44:52;28.17;41.27
66343;DHT22;53144;51.524;5.080;2022-08-30T13:47:43;27.67;42.84
66343;DHT22;53144;51.524;5.080;2022-08-30T13:50:17;27.68;42.13
66343;DHT22;53144;51.524;5.080;2022-08-30T13:52:43;26.79;43.75
66343;DHT22;53144;51.524;5.080;2022-08-30T13:55:09;26.89;43.98
66343;DHT22;53144;51.524;5.080;2022-08-30T13:57:34;26.29;45.66
66343;DHT22;53144;51.524;5.080;2022-08-30T14:00:16;26.45;45.16
66343;DHT22;53144;51.524;5.080;2022-08-30T14:03:03;26.41;45.43
66343;DHT22;53144;51.524;5.080;2022-08-30T14:05:36;26.20;44.63
66343;DHT22;53144;51.524;5.080;2022-08-30T14:08:03;25.72;47.09
66343;DHT22;53144;51.524;5.080;2022-08-30T14:10:35;25.62;46.61
66343;DHT22;53144;51.524;5.080;2022-08-30T14:13:03;25.55;46.14
66343;DHT22;53144;51.524;5.080;2022-08-30T14:15:30;25.45;46.63
66343;DHT22;53144;51.524;5.080;2022-08-30T14:17:56;25.48;45.75
66343;DHT22;53144;51.524;5.080;2022-08-30T14:20:21;25.52;45.97
66343;DHT22;53144;51.524;5.080;2022-08-30T14:22:56;25.39;46.13
66343;DHT22;53144;51.524;5.080;2022-08-30T14:25:25;25.28;47.14
66343;DHT22;53144;51.524;5.080;2022-08-30T14:27:54;25.13;46.84
66343;DHT22;53144;51.524;5.080;2022-08-30T14:30:22;24.82;46.92
66343;DHT22;53144;51.524;5.080;2022-08-30T14:32:48;25.02;46.01
66343;DHT22;53144;51.524;5.080;2022-08-30T14:35:13;24.98;47.36
66343;DHT22;53144;51.524;5.080;2022-08-30T14:37:42;24.83;47.51
66343;DHT22;53144;51.524;5.080;2022-08-30T14:40:08;24.66;47.65
66343;DHT22;53144;51.524;5.080;2022-08-30T14:42:34;24.87;46.59
66343;DHT22;53144;51.524;5.080;2022-08-30T14:44:59;25.06;46.71
66343;DHT22;53144;51.524;5.080;2022-08-30T14:47:24;25.00;47.59
66343;DHT22;53144;51.524;5.080;2022-08-30T14:49:50;25.02;47.06
66343;DHT22;53144;51.524;5.080;2022-08-30T14:52:17;25.03;48.51
66343;DHT22;53144;51.524;5.080;2022-08-30T14:54:42;24.62;47.25
66343;DHT22;53144;51.524;5.080;2022-08-30T14:57:07;24.62;47.62
66343;DHT22;53144;51.524;5.080;2022-08-30T14:59:33;24.57;48.24
66343;DHT22;53144;51.524;5.080;2022-08-30T15:01:58;24.66;47.14
66343;DHT22;53144;51.524;5.080;2022-08-30T15:04:24;24.48;47.18
66343;DHT22;53144;51.524;5.080;2022-08-30T15:06:50;24.39;50.03
66343;DHT22;53144;51.524;5.080;2022-08-30T15:09:19;24.21;48.30
66343;DHT22;53144;51.524;5.080;2022-08-30T15:11:45;24.21;51.62
66343;DHT22;53144;51.524;5.080;2022-08-30T15:14:10;24.21;48.98
66343;DHT22;53144;51.524;5.080;2022-08-30T15:16:37;24.33;48.19
66343;DHT22;53144;51.524;5.080;2022-08-30T15:19:04;24.42;46.94
66343;DHT22;53144;51.524;5.080;2022-08-30T15:21:33;24.32;46.54
66343;DHT22;53144;51.524;5.080;2022-08-30T15:23:59;24.12;48.47
66343;DHT22;53144;51.524;5.080;2022-08-30T15:26:25;24.24;46.34
66343;DHT22;53144;51.524;5.080;2022-08-30T15:28:51;24.05;49.48
66343;DHT22;53144;51.524;5.080;2022-08-30T15:31:18;23.85;48.56
66343;DHT22;53144;51.524;5.080;2022-08-30T15:33:44;24.11;47.26
66343;DHT22;53144;51.524;5.080;2022-08-30T15:36:10;24.11;48.15
66343;DHT22;53144;51.524;5.080;2022-08-30T15:38:36;24.15;48.12
66343;DHT22;53144;51.524;5.080;2022-08-30T15:41:05;24.24;47.00
66343;DHT22;53144;51.524;5.080;2022-08-30T15:43:31;24.12;46.89
66343;DHT22;53144;51.524;5.080;2022-08-30T15:46:13;23.95;49.60
66343;DHT22;53144;51.524;5.080;2022-08-30T15:48:39;23.95;48.10
66343;DHT22;53144;51.524;5.080;2022-08-30T15:51:04;24.01;47.64
66343;DHT22;53144;51.524;5.080;2022-08-30T15:53:32;24.01;47.44
66343;DHT22;53144;51.524;5.080;2022-08-30T15:56:04;23.95;47.51
66343;DHT22;53144;51.524;5.080;2022-08-30T15:58:30;24.18;45.79
66343;DHT22;53144;51.524;5.080;2022-08-30T16:00:55;23.78;50.64
66343;DHT22;53144;51.524;5.080;2022-08-30T16:03:21;23.78;47.61
66343;DHT22;53144;51.524;5.080;2022-08-30T16:05:46;24.02;46.65
66343;DHT22;53144;51.524;5.080;2022-08-30T16:08:12;24.07;46.46
66343;DHT22;53144;51.524;5.080;2022-08-30T16:11:25;23.88;47.62
66343;DHT22;53144;51.524;5.080;2022-08-30T16:13:58;23.85;47.52
66343;DHT22;53144;51.524;5.080;2022-08-30T16:16:26;23.57;49.12
66343;DHT22;53144;51.524;5.080;2022-08-30T16:18:51;23.57;50.67
66343;DHT22;53144;51.524;5.080;2022-08-30T16:21:26;23.64;48.08
66343;DHT22;53144;51.524;5.080;2022-08-30T16:23:57;23.58;48.62
66343;DHT22;53144;51.524;5.080;2022-08-30T16:26:24;23.68;47.99
66343;DHT22;53144;51.524;5.080;2022-08-30T16:28:50;23.82;47.21
66343;DHT22;53144;51.524;5.080;2022-08-30T16:31:16;23.75;48.38
66343;DHT22;53144;51.524;5.080;2022-08-30T16:33:42;23.85;47.03
66343;DHT22;53144;51.524;5.080;2022-08-30T16:36:08;23.87;46.74
66343;DHT22;53144;51.524;5.080;2022-08-30T16:38:35;23.73;47.04
66343;DHT22;53144;51.524;5.080;2022-08-30T16:41:05;23.71;47.99
66343;DHT22;53144;51.524;5.080;2022-08-30T16:43:31;23.67;48.42
66343;DHT22;53144;51.524;5.080;2022-08-30T16:46:05;23.56;47.29
66343;DHT22;53144;51.524;5.080;2022-08-30T16:48:30;23.60;48.14
66343;DHT22;53144;51.524;5.080;2022-08-30T16:50:57;23.42;46.69
66343;DHT22;53144;51.524;5.080;2022-08-30T16:53:26;23.50;47.36
66343;DHT22;53144;51.524;5.080;2022-08-30T16:55:52;23.54;46.81
66343;DHT22;53144;51.524;5.080;2022-08-30T16:58:18;23.37;47.33
66343;DHT22;53144;51.524;5.080;2022-08-30T17:00:49;23.31;48.93
66343;DHT22;53144;51.524;5.080;2022-08-30T17:03:16;23.26;47.88
66343;DHT22;53144;51.524;5.080;2022-08-30T17:05:42;23.19;48.01
66343;DHT22;53144;51.524;5.080;2022-08-30T17:08:09;23.19;49.23
66343;DHT22;53144;51.524;5.080;2022-08-30T17:10:35;23.09;48.73